Terminal Aerodrome Forecast
Issued by NWS

Home | Current Version | Previous Version | Text Only | Print | Product List | Glossary On
Versions: 1 2 3 4 5 6 7 8 9 10 11 12 13 14 15 16 17 18 19 20 21 22 23 24 25
000
FTUS43 KDVN 262300
TAFBRL
TAF
KBRL 262321Z 2700/2724 08010KT 2SM -SN BR OVC007
      TEMPO 2700/2702 1SM -SN BR OVC005
     FM270300 02006KT 5SM -SN BR OVC008
     FM270500 34010KT P6SM OVC010
     FM271600 32010KT P6SM SCT025=

USA.gov is the U.S. government's official web portal to all federal, state and local government web resources and services.